Jacui, Brazil
Current Conditions -  °F | °C
As of 9:00 AM on Thursday 18 Dec 2014 (Local Time) from SBRP Reporting Station
Clear Clear  
Wind Chill: 81°   Ceiling: Unl
Heat Index: 83°   Visibility: 6mi
Dew Point: 66°   Wind: 5mph
Humidity: 61%   Direction: 70°ENE
Pressure: 29.88"   Gusts: NA
Location:  21.02°S, 46.74°W
Report Text: SBRP 181100Z 07004KT CAVOK 27/19 Q1012
Loading
Personal Weather Stations






























Interactive Weather Map New forecast layout! Learn more

10-Day Weather Forecast

Advertisements
Track Severe Weather on mobile